createdAt,value
2019-03-15T00:00:27.817Z,60.82
2019-03-15T00:01:08.500Z,60.82
2019-03-15T00:01:49.182Z,60.91
2019-03-15T00:02:29.797Z,60.91
2019-03-15T00:03:10.384Z,60.72
2019-03-15T00:03:51.022Z,60.63
2019-03-15T00:04:31.614Z,60.91
2019-03-15T00:05:12.231Z,60.63
2019-03-15T00:05:52.823Z,60.63
2019-03-15T00:06:33.416Z,60.91
2019-03-15T00:07:14.026Z,60.63
2019-03-15T00:07:54.650Z,60.91
2019-03-15T00:08:35.276Z,60.63
2019-03-15T00:09:15.862Z,60.63
2019-03-15T00:09:56.465Z,60.63
2019-03-15T00:10:37.104Z,60.72
2019-03-15T00:11:17.708Z,60.91
2019-03-15T00:11:58.304Z,61.01
2019-03-15T00:12:38.900Z,60.72
2019-03-15T00:13:19.486Z,60.82
2019-03-15T00:14:00.103Z,60.63
2019-03-15T00:14:40.874Z,60.82
2019-03-15T00:15:21.531Z,60.82
2019-03-15T00:16:02.136Z,60.91
2019-03-15T00:16:42.796Z,60.72
2019-03-15T00:17:23.402Z,60.72
2019-03-15T00:18:04.052Z,60.43
2019-03-15T00:18:44.662Z,60.53
2019-03-15T00:19:25.257Z,60.72
2019-03-15T00:20:05.830Z,60.72
2019-03-15T00:20:46.430Z,60.63
2019-03-15T00:21:27.018Z,60.72
2019-03-15T00:22:07.622Z,60.43
2019-03-15T00:22:48.218Z,60.43
2019-03-15T00:23:28.825Z,60.63
2019-03-15T00:24:09.460Z,60.63
2019-03-15T00:24:50.085Z,60.63
2019-03-15T00:25:30.684Z,60.63
2019-03-15T00:26:11.310Z,60.63
2019-03-15T00:26:52.179Z,60.43
2019-03-15T00:27:32.797Z,60.63
2019-03-15T00:28:13.454Z,60.63
2019-03-15T00:28:54.063Z,60.63
2019-03-15T00:29:34.661Z,60.43
2019-03-15T00:30:15.276Z,60.34
2019-03-15T00:30:56.067Z,60.63
2019-03-15T00:31:37.559Z,60.43
2019-03-15T00:32:17.562Z,60.43
2019-03-15T00:32:58.550Z,60.63
2019-03-15T00:33:38.770Z,60.43
2019-03-15T00:34:19.387Z,60.34
2019-03-15T00:35:00.127Z,60.43
2019-03-15T00:35:40.700Z,60.43
2019-03-15T00:36:21.299Z,60.63
2019-03-15T00:37:01.904Z,60.43
2019-03-15T00:37:42.533Z,60.43
2019-03-15T00:38:23.912Z,60.43
2019-03-15T00:39:03.730Z,60.34
2019-03-15T00:39:44.318Z,60.82
2019-03-15T00:40:24.935Z,60.43
2019-03-15T00:41:05.531Z,60.43
2019-03-15T00:41:46.115Z,60.34
2019-03-15T00:42:26.714Z,60.72
2019-03-15T00:43:07.300Z,60.72
2019-03-15T00:43:49.312Z,60.34
2019-03-15T00:44:28.508Z,60.43
2019-03-15T00:45:09.116Z,60.43
2019-03-15T00:45:49.724Z,60.82
2019-03-15T00:46:30.330Z,60.72
2019-03-15T00:47:10.912Z,60.34
2019-03-15T00:47:51.508Z,60.43
2019-03-15T00:48:32.096Z,60.72
2019-03-15T00:49:12.690Z,60.63
2019-03-15T00:49:53.282Z,60.43
2019-03-15T00:50:33.909Z,60.43
2019-03-15T00:51:14.582Z,60.63
2019-03-15T00:51:55.221Z,60.43
2019-03-15T00:52:35.836Z,60.72
2019-03-15T00:53:16.446Z,60.72
2019-03-15T00:53:57.046Z,60.63
2019-03-15T00:54:37.646Z,60.72
2019-03-15T00:55:18.315Z,60.63
2019-03-15T00:55:58.846Z,60.63
2019-03-15T00:56:39.485Z,60.63
2019-03-15T00:57:20.072Z,60.53
2019-03-15T00:58:00.681Z,60.72
2019-03-15T00:58:41.298Z,60.43
2019-03-15T00:59:21.916Z,60.63
2019-03-15T01:00:02.517Z,60.53
2019-03-15T01:00:43.136Z,60.72
2019-03-15T01:01:23.740Z,60.72
2019-03-15T01:02:04.340Z,60.72
2019-03-15T01:02:44.940Z,60.53
2019-03-15T01:03:25.526Z,60.53
2019-03-15T01:04:09.298Z,60.53
2019-03-15T01:04:46.732Z,60.53
2019-03-15T01:05:27.328Z,60.53
2019-03-15T01:06:07.986Z,60.53
2019-03-15T01:06:48.612Z,60.53
2019-03-15T01:07:29.238Z,60.63
2019-03-15T01:08:09.874Z,60.53
2019-03-15T01:08:50.478Z,60.53
2019-03-15T01:09:31.102Z,60.72
2019-03-15T01:10:11.746Z,60.72
2019-03-15T01:10:52.394Z,60.63
2019-03-15T01:11:33.010Z,60.72
2019-03-15T01:12:13.630Z,60.72
2019-03-15T01:12:54.230Z,60.63
2019-03-15T01:13:34.852Z,60.53
2019-03-15T01:14:15.515Z,60.53
2019-03-15T01:14:56.142Z,60.53
2019-03-15T01:15:36.748Z,60.43
2019-03-15T01:16:17.360Z,60.53
2019-03-15T01:16:57.954Z,60.72
2019-03-15T01:17:38.585Z,60.43
2019-03-15T01:18:19.337Z,60.72
2019-03-15T01:18:59.850Z,60.72
2019-03-15T01:19:40.462Z,60.72
2019-03-15T01:20:21.048Z,60.72
2019-03-15T01:21:01.649Z,60.43
2019-03-15T01:21:42.244Z,60.43
2019-03-15T01:22:22.822Z,60.72
2019-03-15T01:23:03.435Z,60.53
2019-03-15T01:23:44.032Z,60.63
2019-03-15T01:24:24.632Z,60.72
2019-03-15T01:25:05.238Z,60.43
2019-03-15T01:25:45.836Z,60.63
2019-03-15T01:26:26.439Z,60.72
2019-03-15T01:27:07.004Z,60.91
2019-03-15T01:27:47.628Z,60.53
2019-03-15T01:28:28.286Z,60.43
2019-03-15T01:29:08.900Z,60.53
2019-03-15T01:29:49.585Z,60.43
2019-03-15T01:30:30.238Z,60.72
2019-03-15T01:31:10.815Z,60.63
2019-03-15T01:31:51.472Z,60.72
2019-03-15T01:32:32.112Z,60.53
2019-03-15T01:33:12.765Z,60.43
2019-03-15T01:33:53.402Z,60.91
2019-03-15T01:34:34.024Z,60.72
2019-03-15T01:35:14.626Z,60.53
2019-03-15T01:35:55.250Z,60.53
2019-03-15T01:36:35.831Z,60.63
2019-03-15T01:37:16.428Z,60.72
2019-03-15T01:37:57.040Z,60.63
2019-03-15T01:38:37.641Z,60.43
2019-03-15T01:39:18.236Z,60.72
2019-03-15T01:39:58.878Z,60.72
2019-03-15T01:40:39.496Z,60.53
2019-03-15T01:41:20.088Z,60.43
2019-03-15T01:42:00.709Z,60.63
2019-03-15T01:42:41.337Z,60.72
2019-03-15T01:43:21.940Z,60.91
2019-03-15T01:44:03.479Z,60.63
2019-03-15T01:44:43.122Z,60.63
2019-03-15T01:45:23.712Z,60.63
2019-03-15T01:46:04.352Z,60.53
2019-03-15T01:46:44.982Z,60.43
2019-03-15T01:47:25.601Z,60.72
2019-03-15T01:48:06.186Z,60.63
2019-03-15T01:48:46.794Z,60.91
2019-03-15T01:49:27.485Z,60.72
2019-03-15T01:50:08.133Z,60.63
2019-03-15T01:50:48.730Z,60.72
2019-03-15T01:51:29.316Z,60.91
2019-03-15T01:52:09.930Z,60.91
2019-03-15T01:52:50.564Z,60.82
2019-03-15T01:53:31.144Z,60.82
2019-03-15T01:54:11.812Z,61.01
2019-03-15T01:54:52.394Z,60.82
2019-03-15T01:55:33.003Z,60.82
2019-03-15T01:56:13.602Z,60.82
2019-03-15T01:56:54.339Z,60.82
2019-03-15T01:57:34.979Z,60.91
2019-03-15T01:58:15.550Z,60.72
2019-03-15T01:58:56.158Z,60.82
2019-03-15T01:59:36.796Z,60.82
2019-03-15T02:00:17.412Z,60.82
2019-03-15T02:00:58.022Z,60.82
2019-03-15T02:01:38.621Z,60.82
2019-03-15T02:02:19.294Z,60.82
2019-03-15T02:03:02.225Z,60.82
2019-03-15T02:03:40.610Z,60.72
2019-03-15T02:04:21.216Z,60.82
2019-03-15T02:05:01.801Z,60.82
2019-03-15T02:05:42.397Z,60.82
2019-03-15T02:06:22.980Z,60.63
2019-03-15T02:07:03.619Z,60.82
2019-03-15T02:07:44.196Z,60.91
2019-03-15T02:08:24.898Z,60.82
2019-03-15T02:09:08.858Z,60.91
2019-03-15T02:09:46.250Z,60.91
2019-03-15T02:10:26.932Z,60.72
2019-03-15T02:11:07.562Z,60.91
2019-03-15T02:11:48.153Z,60.91
2019-03-15T02:12:28.750Z,60.72
2019-03-15T02:13:09.345Z,60.82
2019-03-15T02:13:49.927Z,60.82
2019-03-15T02:14:30.654Z,60.91
2019-03-15T02:15:11.294Z,60.72
2019-03-15T02:15:51.901Z,60.91
2019-03-15T02:16:32.540Z,60.72
2019-03-15T02:17:13.230Z,60.63
2019-03-15T02:17:53.900Z,60.78
2019-03-15T02:18:34.486Z,60.91
2019-03-15T02:19:15.092Z,60.82
2019-03-15T02:19:55.682Z,60.78
2019-03-15T02:20:36.294Z,60.82
2019-03-15T02:21:16.930Z,60.91
2019-03-15T02:21:57.590Z,60.72
2019-03-15T02:22:38.190Z,60.91
2019-03-15T02:23:18.840Z,60.91
2019-03-15T02:23:59.506Z,60.91
2019-03-15T02:24:40.170Z,60.91
2019-03-15T02:25:20.817Z,60.69
2019-03-15T02:26:01.416Z,60.72
2019-03-15T02:26:42.052Z,60.91
2019-03-15T02:27:22.672Z,60.72
2019-03-15T02:28:03.284Z,60.91
2019-03-15T02:28:43.975Z,60.69
2019-03-15T02:29:24.530Z,60.69
2019-03-15T02:30:05.143Z,60.72
2019-03-15T02:30:45.788Z,60.91
2019-03-15T02:31:26.450Z,60.82
2019-03-15T02:32:07.074Z,60.91
2019-03-15T02:32:47.720Z,60.88
2019-03-15T02:33:28.336Z,60.72
2019-03-15T02:34:08.939Z,60.6
2019-03-15T02:34:49.606Z,60.63
2019-03-15T02:35:30.190Z,60.78
2019-03-15T02:36:10.805Z,60.63
2019-03-15T02:36:51.386Z,60.69
2019-03-15T02:37:32.037Z,60.6
2019-03-15T02:38:12.641Z,60.6
2019-03-15T02:38:53.978Z,60.69
2019-03-15T02:39:33.854Z,60.6
2019-03-15T02:40:14.441Z,60.43
2019-03-15T02:40:55.026Z,60.69
2019-03-15T02:41:35.624Z,60.69
2019-03-15T02:42:16.213Z,60.6
2019-03-15T02:42:56.811Z,60.82
2019-03-15T02:43:37.403Z,60.82
2019-03-15T02:44:18.000Z,60.82
2019-03-15T02:44:58.611Z,60.5
2019-03-15T02:45:39.207Z,60.21
2019-03-15T02:46:19.883Z,60.31
2019-03-15T02:47:00.513Z,60.21
2019-03-15T02:47:41.105Z,60.31
2019-03-15T02:48:21.689Z,60.82
2019-03-15T02:49:02.271Z,60.21
2019-03-15T02:49:42.871Z,60.69
2019-03-15T02:50:23.482Z,60.69
2019-03-15T02:51:04.093Z,60.72
2019-03-15T02:51:44.685Z,60.21
2019-03-15T02:52:25.312Z,60.21
2019-03-15T02:53:05.882Z,60.21
2019-03-15T02:53:46.546Z,60.31
2019-03-15T02:54:27.395Z,60.34
2019-03-15T02:55:07.781Z,60.4
2019-03-15T02:55:48.649Z,60.31
2019-03-15T02:56:28.965Z,60.5
2019-03-15T02:57:09.562Z,60.43
2019-03-15T02:57:50.177Z,60.4
2019-03-15T02:58:30.785Z,60.4
2019-03-15T02:59:11.395Z,60.4
2019-03-15T02:59:51.989Z,60.4
2019-03-15T03:00:32.583Z,60.4
2019-03-15T03:01:13.178Z,60.4
2019-03-15T03:01:53.766Z,60.63
2019-03-15T03:02:34.360Z,60.31
2019-03-15T03:03:14.964Z,60.31
2019-03-15T03:03:55.556Z,60.72
2019-03-15T03:04:36.170Z,60.4
2019-03-15T03:05:16.770Z,60.21
2019-03-15T03:05:57.360Z,60.34
2019-03-15T03:06:37.966Z,60.31
2019-03-15T03:07:18.561Z,60.69
2019-03-15T03:07:59.171Z,60.53
2019-03-15T03:08:41.283Z,60.69
2019-03-15T03:09:20.358Z,60.21
2019-03-15T03:10:01.626Z,60.78
2019-03-15T03:10:41.561Z,60.21
2019-03-15T03:11:22.169Z,60.31
2019-03-15T03:12:02.790Z,60.6
2019-03-15T03:12:44.040Z,60.21
2019-03-15T03:13:23.969Z,60.6
2019-03-15T03:14:04.609Z,60.6
2019-03-15T03:14:45.171Z,60.6
2019-03-15T03:15:25.784Z,60.5
2019-03-15T03:16:06.390Z,60.6
2019-03-15T03:16:47.132Z,60.69
2019-03-15T03:17:27.606Z,60.31
2019-03-15T03:18:08.207Z,60.5
2019-03-15T03:18:48.801Z,60.6
2019-03-15T03:19:29.408Z,60.31
2019-03-15T03:20:10.005Z,60.31
2019-03-15T03:20:50.592Z,60.21
2019-03-15T03:21:31.199Z,60.02
2019-03-15T03:22:11.801Z,60.11
2019-03-15T03:22:52.410Z,60.02
2019-03-15T03:23:33.017Z,59.73
2019-03-15T03:24:13.615Z,59.64
2019-03-15T03:24:54.207Z,60.02
2019-03-15T03:25:34.809Z,59.73
2019-03-15T03:26:15.394Z,59.54
2019-03-15T03:26:55.972Z,59.57
2019-03-15T03:27:36.571Z,59.54
2019-03-15T03:28:17.189Z,59.64
2019-03-15T03:28:57.783Z,60.11
2019-03-15T03:29:38.385Z,60.11
2019-03-15T03:30:18.986Z,60.21
2019-03-15T03:30:59.639Z,60.11
2019-03-15T03:31:40.340Z,59.73
2019-03-15T03:32:20.893Z,60.02
2019-03-15T03:33:01.494Z,60.02
2019-03-15T03:33:42.468Z,59.92
2019-03-15T03:34:22.674Z,59.92
2019-03-15T03:35:03.301Z,59.92
2019-03-15T03:35:43.883Z,59.83
2019-03-15T03:36:24.467Z,59.92
2019-03-15T03:37:05.073Z,59.83
2019-03-15T03:37:45.672Z,59.73
2019-03-15T03:38:26.274Z,59.73
2019-03-15T03:39:06.869Z,59.54
2019-03-15T03:39:47.469Z,59.83
2019-03-15T03:40:29.059Z,59.73
2019-03-15T03:41:08.662Z,59.92
2019-03-15T03:41:49.265Z,59.83
2019-03-15T03:42:29.867Z,59.73
2019-03-15T03:43:10.460Z,59.83
2019-03-15T03:43:51.080Z,59.83
2019-03-15T03:44:31.671Z,59.73
2019-03-15T03:45:12.273Z,60.11
2019-03-15T03:45:52.851Z,59.73
2019-03-15T03:46:33.443Z,59.83
2019-03-15T03:47:14.037Z,59.64
2019-03-15T03:47:54.633Z,59.83
2019-03-15T03:48:35.508Z,59.83
2019-03-15T03:49:15.825Z,59.83
2019-03-15T03:49:56.461Z,59.83
2019-03-15T03:50:37.044Z,59.64
2019-03-15T03:51:17.642Z,59.73
2019-03-15T03:52:00.044Z,59.73
2019-03-15T03:52:41.856Z,59.54
2019-03-15T03:53:21.241Z,59.73
2019-03-15T03:54:01.828Z,59.54
2019-03-15T03:54:42.441Z,59.83
2019-03-15T03:55:23.031Z,60.21
2019-03-15T03:56:03.663Z,60.21
2019-03-15T03:56:44.507Z,59.83
2019-03-15T03:57:25.121Z,59.83
2019-03-15T03:58:05.719Z,59.54
2019-03-15T03:58:46.315Z,59.73
2019-03-15T03:59:26.905Z,59.73
2019-03-15T04:00:07.511Z,59.73
2019-03-15T04:00:48.141Z,59.73
2019-03-15T04:01:28.738Z,59.92
2019-03-15T04:02:09.321Z,59.73
2019-03-15T04:02:53.061Z,60.02
2019-03-15T04:03:30.517Z,59.73
2019-03-15T04:04:11.119Z,59.64
2019-03-15T04:04:51.722Z,59.92
2019-03-15T04:05:32.317Z,60.02
2019-03-15T04:06:12.928Z,59.73
2019-03-15T04:06:53.528Z,60.11
2019-03-15T04:07:35.945Z,60.02
2019-03-15T04:08:16.531Z,60.11
2019-03-15T04:08:57.120Z,60.11
2019-03-15T04:09:37.698Z,60.02
2019-03-15T04:10:18.289Z,59.92
2019-03-15T04:10:58.883Z,59.92
2019-03-15T04:11:39.592Z,60.02
2019-03-15T04:12:20.252Z,60.02
2019-03-15T04:13:00.844Z,60.21
2019-03-15T04:13:41.447Z,60.11
2019-03-15T04:14:22.045Z,59.92
2019-03-15T04:15:02.647Z,59.92
2019-03-15T04:15:43.241Z,59.83
2019-03-15T04:16:23.852Z,59.83
2019-03-15T04:17:04.508Z,59.54
2019-03-15T04:17:45.126Z,59.54
2019-03-15T04:18:25.726Z,59.44
2019-03-15T04:19:06.326Z,59.83
2019-03-15T04:19:46.921Z,59.54
2019-03-15T04:20:27.511Z,59.73
2019-03-15T04:21:08.103Z,59.83
2019-03-15T04:21:48.704Z,59.92
2019-03-15T04:22:29.296Z,59.92
2019-03-15T04:23:09.886Z,59.64
2019-03-15T04:23:50.473Z,59.44
2019-03-15T04:24:31.077Z,59.44
2019-03-15T04:25:11.668Z,59.54
2019-03-15T04:25:52.278Z,59.54
2019-03-15T04:26:32.895Z,59.64
2019-03-15T04:27:13.495Z,59.54
2019-03-15T04:27:54.093Z,59.64
2019-03-15T04:28:34.756Z,59.34
2019-03-15T04:29:15.288Z,59.54
2019-03-15T04:29:55.880Z,59.64
2019-03-15T04:30:36.478Z,59.73
2019-03-15T04:31:17.178Z,59.44
2019-03-15T04:31:57.758Z,59.64
2019-03-15T04:32:40.333Z,59.73
2019-03-15T04:33:20.974Z,59.44
2019-03-15T04:34:01.562Z,60.02
2019-03-15T04:34:42.166Z,59.25
2019-03-15T04:35:22.755Z,59.54
2019-03-15T04:36:03.358Z,59.73
2019-03-15T04:36:44.000Z,59.73
2019-03-15T04:37:24.574Z,59.44
2019-03-15T04:38:05.172Z,60.21
2019-03-15T04:38:45.794Z,59.54
2019-03-15T04:39:26.376Z,59.92
2019-03-15T04:40:06.996Z,60.14
2019-03-15T04:40:47.588Z,60.6
2019-03-15T04:41:28.190Z,60.4
2019-03-15T04:42:08.939Z,60.31
2019-03-15T04:42:49.522Z,60.5
2019-03-15T04:43:30.127Z,60.31
2019-03-15T04:44:10.724Z,60.31
2019-03-15T04:44:51.320Z,60.4
2019-03-15T04:45:31.914Z,60.78
2019-03-15T04:46:12.560Z,60.6
2019-03-15T04:46:53.139Z,60.11
2019-03-15T04:47:33.791Z,60.11
2019-03-15T04:48:14.439Z,60.11
2019-03-15T04:48:55.042Z,60.11
2019-03-15T04:49:35.634Z,60.6
2019-03-15T04:50:16.246Z,60.78
2019-03-15T04:50:56.862Z,60.4
2019-03-15T04:51:37.466Z,60.31
2019-03-15T04:52:18.065Z,60.4
2019-03-15T04:52:58.655Z,60.4
2019-03-15T04:53:39.316Z,60.53
2019-03-15T04:54:19.924Z,60.4
2019-03-15T04:55:00.518Z,60.6
2019-03-15T04:55:41.124Z,60.5
2019-03-15T04:56:21.779Z,60.4
2019-03-15T04:57:02.384Z,60.4
2019-03-15T04:57:42.982Z,60.11
2019-03-15T04:58:23.584Z,60.4
2019-03-15T04:59:04.194Z,60.4
2019-03-15T04:59:44.826Z,60.4
2019-03-15T05:00:25.414Z,60.5
2019-03-15T05:01:06.043Z,60.5
2019-03-15T05:01:46.642Z,60.11
2019-03-15T05:02:28.938Z,60.21
2019-03-15T05:03:09.526Z,60.21
2019-03-15T05:03:50.196Z,60.02
2019-03-15T05:04:30.806Z,60.02
2019-03-15T05:05:11.388Z,60.31
2019-03-15T05:06:02.355Z,60.21
2019-03-15T05:06:32.671Z,60.5
2019-03-15T05:07:13.247Z,59.73
2019-03-15T05:07:53.848Z,59.54
2019-03-15T05:08:34.520Z,59.64
2019-03-15T05:09:15.068Z,59.64
2019-03-15T05:09:55.716Z,59.25
2019-03-15T05:10:36.308Z,59.44
2019-03-15T05:11:16.910Z,59.64
2019-03-15T05:11:57.518Z,59.44
2019-03-15T05:12:38.118Z,59.16
2019-03-15T05:13:18.726Z,59.34
2019-03-15T05:13:59.346Z,59.64
2019-03-15T05:14:40.060Z,59.16
2019-03-15T05:15:20.658Z,59.16
2019-03-15T05:16:01.246Z,58.96
2019-03-15T05:16:41.850Z,59.16
2019-03-15T05:17:22.438Z,59.34
2019-03-15T05:18:03.040Z,59.16
2019-03-15T05:18:43.633Z,59.54
2019-03-15T05:19:24.245Z,59.25
2019-03-15T05:20:04.846Z,59.44
2019-03-15T05:20:45.442Z,59.44
2019-03-15T05:21:26.070Z,59.44
2019-03-15T05:22:06.660Z,59.16
2019-03-15T05:22:47.254Z,58.96
2019-03-15T05:23:27.856Z,59.44
2019-03-15T05:24:08.446Z,58.96
2019-03-15T05:24:49.037Z,58.77
2019-03-15T05:25:30.073Z,58.96
2019-03-15T05:26:10.292Z,59.06
2019-03-15T05:26:50.902Z,58.87
2019-03-15T05:27:31.512Z,59.06
2019-03-15T05:28:12.116Z,59.06
2019-03-15T05:28:52.740Z,58.87
2019-03-15T05:29:33.386Z,58.39
2019-03-15T05:30:14.028Z,58.2
2019-03-15T05:30:54.638Z,58.67
2019-03-15T05:31:35.264Z,58.67
2019-03-15T05:32:15.874Z,58.77
2019-03-15T05:32:56.498Z,58.48
2019-03-15T05:33:37.088Z,58.58
2019-03-15T05:34:17.694Z,58.58
2019-03-15T05:34:58.290Z,58.58
2019-03-15T05:35:38.890Z,58.67
2019-03-15T05:36:19.508Z,58.48
2019-03-15T05:37:00.108Z,58.48
2019-03-15T05:37:40.726Z,58.39
2019-03-15T05:38:21.352Z,58.1
2019-03-15T05:39:01.956Z,58.58
2019-03-15T05:39:42.588Z,58.58
2019-03-15T05:40:23.189Z,58.58
2019-03-15T05:41:03.807Z,58.58
2019-03-15T05:41:44.426Z,58.2
2019-03-15T05:42:25.000Z,58.58
2019-03-15T05:43:05.583Z,57.81
2019-03-15T05:43:46.192Z,58
2019-03-15T05:44:26.786Z,58.58
2019-03-15T05:45:07.382Z,57.81
2019-03-15T05:45:48.002Z,57.81
2019-03-15T05:46:28.600Z,57.62
2019-03-15T05:47:09.180Z,57.81
2019-03-15T05:47:49.772Z,57.71
2019-03-15T05:48:30.368Z,57.62
2019-03-15T05:49:10.972Z,57.23
2019-03-15T05:49:51.570Z,57.81
2019-03-15T05:50:32.186Z,57.71
2019-03-15T05:51:12.781Z,58.1
2019-03-15T05:51:53.376Z,57.71
2019-03-15T05:52:33.994Z,57.43
2019-03-15T05:53:14.590Z,57.43
2019-03-15T05:53:55.204Z,57.43
2019-03-15T05:54:35.798Z,57.52
2019-03-15T05:55:16.424Z,57.43
2019-03-15T05:55:57.012Z,57.62
2019-03-15T05:56:37.593Z,57.33
2019-03-15T05:57:18.208Z,56.66
2019-03-15T05:57:58.798Z,57.62
2019-03-15T05:58:39.391Z,57.23
2019-03-15T05:59:19.982Z,57.62
2019-03-15T06:00:00.585Z,57.43
2019-03-15T06:00:41.184Z,57.14
2019-03-15T06:01:21.820Z,57.43
2019-03-15T06:02:02.448Z,57.43
2019-03-15T06:02:43.052Z,57.52
2019-03-15T06:03:23.714Z,57.23
2019-03-15T06:04:04.346Z,57.23
2019-03-15T06:04:44.935Z,57.62
2019-03-15T06:05:25.534Z,57.52
2019-03-15T06:06:06.134Z,57.33
2019-03-15T06:06:46.742Z,57.52
2019-03-15T06:07:27.330Z,57.71
2019-03-15T06:08:07.974Z,57.04
2019-03-15T06:08:48.554Z,56.95
2019-03-15T06:09:29.144Z,56.85
2019-03-15T06:10:09.732Z,57.23
2019-03-15T06:10:50.366Z,57.04
2019-03-15T06:11:31.038Z,57.04
2019-03-15T06:12:11.632Z,57.04
2019-03-15T06:12:52.230Z,56.66
2019-03-15T06:13:32.834Z,57.04
2019-03-15T06:14:13.475Z,57.14
2019-03-15T06:14:54.115Z,56.76
2019-03-15T06:15:34.801Z,56.95
2019-03-15T06:16:15.442Z,56.95
2019-03-15T06:16:56.078Z,56.85
2019-03-15T06:17:36.726Z,56.66
2019-03-15T06:18:17.334Z,57.04
2019-03-15T06:18:57.942Z,56.95
2019-03-15T06:19:38.566Z,57.04
2019-03-15T06:20:19.214Z,56.95
2019-03-15T06:20:59.768Z,56.85
2019-03-15T06:21:40.364Z,56.95
2019-03-15T06:22:21.045Z,56.95
2019-03-15T06:23:01.646Z,56.95
2019-03-15T06:23:42.262Z,57.04
2019-03-15T06:24:22.852Z,57.14
2019-03-15T06:25:03.438Z,56.56
2019-03-15T06:25:44.084Z,57.04
2019-03-15T06:26:24.688Z,56.37
2019-03-15T06:27:05.282Z,56.37
2019-03-15T06:27:45.874Z,56.56
2019-03-15T06:28:26.488Z,55.89
2019-03-15T06:29:07.123Z,55.99
2019-03-15T06:29:47.726Z,56.08
2019-03-15T06:30:28.372Z,56.08
2019-03-15T06:31:09.022Z,56.08
2019-03-15T06:31:49.642Z,55.99
2019-03-15T06:32:30.242Z,56.18
2019-03-15T06:33:10.844Z,56.18
2019-03-15T06:33:51.446Z,56.37
2019-03-15T06:34:32.057Z,55.79
2019-03-15T06:35:12.676Z,56.46
2019-03-15T06:35:53.262Z,56.27
2019-03-15T06:36:33.848Z,56.46
2019-03-15T06:37:14.476Z,56.18
2019-03-15T06:37:55.082Z,56.37
2019-03-15T06:38:35.718Z,55.79
2019-03-15T06:39:16.329Z,55.89
2019-03-15T06:39:56.954Z,55.41
2019-03-15T06:40:37.568Z,55.79
2019-03-15T06:41:18.174Z,55.6
2019-03-15T06:41:58.789Z,55.89
2019-03-15T06:42:39.394Z,55.6
2019-03-15T06:43:20.011Z,55.6
2019-03-15T06:44:00.711Z,55.79
2019-03-15T06:44:41.295Z,55.69
2019-03-15T06:45:21.935Z,55.51
2019-03-15T06:46:02.561Z,55.89
2019-03-15T06:46:43.200Z,55.89
2019-03-15T06:47:23.844Z,55.41
2019-03-15T06:48:04.478Z,55.51
2019-03-15T06:48:45.427Z,55.89
2019-03-15T06:49:25.689Z,55.02
2019-03-15T06:50:06.306Z,55.41
2019-03-15T06:50:46.912Z,55.12
2019-03-15T06:51:27.504Z,55.32
2019-03-15T06:52:08.150Z,55.32
2019-03-15T06:52:51.638Z,55.99
2019-03-15T06:53:32.235Z,55.32
2019-03-15T06:54:12.878Z,54.83
2019-03-15T06:54:53.618Z,54.93
2019-03-15T06:55:34.185Z,54.93
2019-03-15T06:56:14.814Z,54.83
2019-03-15T06:56:55.434Z,54.93
2019-03-15T06:57:36.064Z,54.83
2019-03-15T06:58:16.812Z,54.93
2019-03-15T06:58:57.466Z,54.83
2019-03-15T06:59:38.034Z,54.93
2019-03-15T07:00:18.732Z,54.83
2019-03-15T07:00:59.333Z,55.02
2019-03-15T07:01:39.980Z,54.74
2019-03-15T07:02:20.670Z,54.83
2019-03-15T07:03:01.334Z,54.93
2019-03-15T07:03:41.912Z,54.83
2019-03-15T07:04:22.529Z,54.83
2019-03-15T07:05:03.170Z,55.12
2019-03-15T07:05:43.752Z,54.74
2019-03-15T07:06:24.356Z,54.45
2019-03-15T07:07:04.948Z,54.06
2019-03-15T07:07:45.662Z,53.61
2019-03-15T07:08:26.164Z,53.8
2019-03-15T07:09:07.370Z,53.06
2019-03-15T07:09:47.386Z,52.29
2019-03-15T07:10:28.019Z,51.72
2019-03-15T07:11:08.610Z,50.97
2019-03-15T07:11:49.208Z,51.17
2019-03-15T07:12:29.815Z,51.19
2019-03-15T07:13:10.410Z,50.32
2019-03-15T07:13:50.990Z,50.23
2019-03-15T07:14:31.612Z,49.87
2019-03-15T07:15:12.220Z,49.46
2019-03-15T07:15:52.841Z,49.65
2019-03-15T07:16:33.472Z,49.82
2019-03-15T07:17:14.707Z,50.59
2019-03-15T07:17:54.684Z,51.14
2019-03-15T07:18:35.586Z,51.23
2019-03-15T07:19:25.431Z,51.4
2019-03-15T07:19:56.528Z,51.88
2019-03-15T07:20:37.138Z,52.17
2019-03-15T07:21:17.753Z,53.13
2019-03-15T07:21:58.347Z,53.13
2019-03-15T07:22:38.944Z,52.36
2019-03-15T07:23:19.534Z,51.88
2019-03-15T07:24:00.186Z,52.08
2019-03-15T07:24:43.522Z,52.65
2019-03-15T07:25:21.389Z,52.46
2019-03-15T07:26:01.996Z,52.36
2019-03-15T07:26:43.828Z,52.17
2019-03-15T07:27:23.206Z,51.98
2019-03-15T07:28:03.795Z,52.08
2019-03-15T07:28:44.410Z,52.46
2019-03-15T07:29:25.046Z,51.88
2019-03-15T07:30:05.664Z,51.98
2019-03-15T07:30:46.264Z,51.59
2019-03-15T07:31:26.911Z,51.69
2019-03-15T07:32:07.526Z,51.69
2019-03-15T07:32:48.124Z,51.88
2019-03-15T07:33:28.734Z,51.69
2019-03-15T07:34:09.344Z,51.79
2019-03-15T07:34:49.952Z,51.88
2019-03-15T07:35:30.558Z,51.69
2019-03-15T07:36:11.144Z,51.79
2019-03-15T07:36:55.079Z,51.69
2019-03-15T07:37:32.358Z,51.79
2019-03-15T07:38:12.961Z,51.5
2019-03-15T07:38:53.550Z,51.69
2019-03-15T07:39:34.146Z,51.59
2019-03-15T07:40:14.776Z,51.79
2019-03-15T07:40:55.360Z,51.88
2019-03-15T07:41:35.953Z,51.69
2019-03-15T07:42:16.553Z,51.98
2019-03-15T07:42:59.852Z,51.31
2019-03-15T07:43:37.755Z,51.88
2019-03-15T07:44:18.376Z,51.88
2019-03-15T07:44:58.992Z,51.69
2019-03-15T07:45:39.609Z,51.69
2019-03-15T07:46:20.210Z,51.69
2019-03-15T07:47:00.802Z,51.79
2019-03-15T07:47:41.416Z,51.79
2019-03-15T07:48:23.028Z,51.69
2019-03-15T07:49:02.622Z,51.98
2019-03-15T07:49:43.219Z,51.98
2019-03-15T07:50:23.804Z,51.4
2019-03-15T07:51:04.404Z,51.31
2019-03-15T07:51:44.988Z,51.4
2019-03-15T07:52:25.587Z,51.95
2019-03-15T07:53:06.182Z,51.79
2019-03-15T07:53:46.795Z,51.79
2019-03-15T07:54:37.334Z,51.86
2019-03-15T07:55:08.001Z,51.57
2019-03-15T07:55:48.585Z,51.88
2019-03-15T07:56:29.200Z,51.76
2019-03-15T07:57:09.806Z,51.67
2019-03-15T07:57:50.410Z,51.79
2019-03-15T07:58:31.010Z,51.67
2019-03-15T07:59:11.634Z,51.69
2019-03-15T07:59:52.224Z,51.86
2019-03-15T08:00:32.850Z,51.76
2019-03-15T08:01:13.454Z,51.76
2019-03-15T08:01:54.082Z,51.86
2019-03-15T08:02:34.684Z,51.67
2019-03-15T08:03:15.282Z,51.86
2019-03-15T08:03:55.874Z,51.59
2019-03-15T08:04:36.466Z,51.86
2019-03-15T08:05:17.075Z,51.86
2019-03-15T08:05:57.701Z,51.86
2019-03-15T08:06:38.308Z,51.69
2019-03-15T08:07:19.841Z,51.86
2019-03-15T08:07:59.482Z,51.86
2019-03-15T08:08:40.145Z,51.76
2019-03-15T08:09:20.694Z,51.67
2019-03-15T08:10:01.307Z,51.86
2019-03-15T08:10:41.898Z,51.67
2019-03-15T08:11:22.532Z,51.95
2019-03-15T08:12:03.119Z,51.76
2019-03-15T08:12:43.718Z,51.67
2019-03-15T08:13:24.324Z,51.86
2019-03-15T08:14:04.930Z,51.76
2019-03-15T08:14:45.514Z,51.67
2019-03-15T08:15:26.124Z,51.95
2019-03-15T08:16:06.720Z,52.14
2019-03-15T08:16:47.324Z,52.05
2019-03-15T08:17:27.918Z,51.67
2019-03-15T08:18:08.522Z,52.05
2019-03-15T08:18:49.131Z,51.86
2019-03-15T08:19:29.710Z,51.67
2019-03-15T08:20:10.305Z,51.57
2019-03-15T08:20:50.902Z,52.14
2019-03-15T08:21:31.480Z,52.05
2019-03-15T08:22:12.084Z,52.43
2019-03-15T08:22:52.680Z,52.62
2019-03-15T08:23:33.258Z,52.14
2019-03-15T08:24:13.855Z,52.05
2019-03-15T08:24:54.469Z,52.53
2019-03-15T08:25:35.102Z,52.34
2019-03-15T08:26:15.768Z,52.24
2019-03-15T08:26:56.358Z,52.14
2019-03-15T08:27:36.954Z,52.05
2019-03-15T08:28:17.551Z,52.34
2019-03-15T08:28:58.160Z,52.14
2019-03-15T08:29:38.762Z,52.72
2019-03-15T08:30:19.384Z,52.91
2019-03-15T08:30:59.984Z,52.43
2019-03-15T08:31:40.590Z,52.24
2019-03-15T08:32:21.206Z,52.75
2019-03-15T08:33:09.835Z,52.43
2019-03-15T08:33:42.429Z,52.43
2019-03-15T08:34:23.022Z,52.34
2019-03-15T08:35:04.290Z,52.43
2019-03-15T08:35:44.200Z,52.34
2019-03-15T08:36:24.788Z,52.62
2019-03-15T08:37:05.386Z,52.62
2019-03-15T08:37:45.973Z,52.34
2019-03-15T08:38:26.560Z,52.24
2019-03-15T08:39:07.163Z,52.43
2019-03-15T08:39:47.747Z,52.62
2019-03-15T08:40:28.348Z,52.62
2019-03-15T08:41:08.975Z,53.11
2019-03-15T08:41:49.548Z,52.53
2019-03-15T08:42:30.196Z,52.34
2019-03-15T08:43:10.772Z,52.34
2019-03-15T08:43:51.359Z,52.62
2019-03-15T08:44:31.992Z,52.62